Belleville, Mississippi
Current Conditions -  °F | °C
As of 6:53 PM on Friday 24 Oct 2014 (Local Time) from KHBG Reporting Station
Clear Clear  
Wind Chill: 60°   Ceiling: Unl
Heat Index: 60°   Visibility: 10mi
Dew Point: 51°   Wind: 3mph
Humidity: 72%   Direction: 300°WNW
Pressure: 30.07"   Gusts: NA
Location:  31.0667°N, 89.05°W
Report Text: KHBG 242353Z AUTO 30003KT 10SM CLR 16/11 A3007 RMK AO2 SLP182 T01560106 10244 20156 53007
Loading
Personal Weather Stations






























Interactive Weather Map
Tropical Storm Tracking
New forecast layout! Learn more

10-Day Weather Forecast

Advertisements
Track Severe Weather on mobile